Pinehurst, Washington
Current Conditions -  °F | °C
As of 7:53 PM on Saturday 25 Oct 2014 (Local Time) from KPAE Reporting Station
Broken Clouds Broken Clouds  
Wind Chill: 57°   Ceiling: 1300
Heat Index: 57°   Visibility: 10mi
Dew Point: 52°   Wind: 25mph
Humidity: 83%   Direction: 200°SSW
Pressure: 29.32"   Gusts: 37mph
Location:  47.9451°N, 122.226°W
Report Text: KPAE 260253Z 20022G32KT 10SM BKN013 BKN120 14/11 A2932 RMK AO2 PK WND 18037/0239 PRESRR SLP930 60007 T01390111 53015
Loading
Personal Weather Stations






























Interactive Weather Map
Tropical Storm Tracking
New forecast layout! Learn more

10-Day Weather Forecast

Advertisements
Track Severe Weather on mobile